Time;durP1;ratioP1;P1;durP2;ratioP2;P2;SDS_P1;SDS_P2;PMS_P1;PMS_P2;Temp;Humidity;BMP_temperature;BMP_pressure;BME280_temperature;BME280_humidity;BME280_pressure;Samples;Min_cycle;Max_cycle;Signal;HPM_P1;HPM_P2
2022/09/11 00:01:14;;;;;;;;;36.00;26.75;;;;;-144.96;100.00;116156.88;5057335;28;45179;-83
2022/09/11 00:03:41;;;;;;;;;48.00;37.75;;;;;-144.96;100.00;116156.88;5057784;28;45271;-83
2022/09/11 00:06:09;;;;;;;;;43.75;37.00;;;;;-144.96;100.00;116156.88;5057770;28;45512;-82
2022/09/11 00:08:36;;;;;;;;;53.00;37.25;;;;;-144.96;100.00;116156.88;5057805;27;45166;-82
2022/09/11 00:11:07;;;;;;;;;47.00;37.00;;;;;-144.96;100.00;116156.88;5074011;27;45412;-82
2022/09/11 00:13:34;;;;;;;;;34.75;30.75;;;;;-144.96;100.00;116156.88;5058353;28;46059;-83
2022/09/11 00:16:01;;;;;;;;;35.00;30.25;;;;;-144.96;100.00;116156.88;5058569;28;45319;-83
2022/09/11 00:18:28;;;;;;;;;41.50;36.00;;;;;-144.96;100.00;116156.88;5057541;28;45500;-81
2022/09/11 00:20:56;;;;;;;;;44.25;37.00;;;;;-144.96;100.00;116156.88;5062312;28;45344;-82
2022/09/11 00:23:24;;;;;;;;;48.50;36.50;;;;;-144.96;100.00;116156.88;5062682;28;45272;-82
2022/09/11 00:25:50;;;;;;;;;35.25;33.25;;;;;-144.96;100.00;116156.88;5058031;28;45328;-83
2022/09/11 00:28:19;;;;;;;;;31.00;30.25;;;;;-144.96;100.00;116156.88;5057707;28;45375;-82
2022/09/11 00:30:46;;;;;;;;;36.25;34.50;;;;;-144.96;100.00;116156.88;5059218;28;45339;-82
2022/09/11 00:33:13;;;;;;;;;41.50;34.00;;;;;-144.96;100.00;116156.88;5058925;28;45533;-82
2022/09/11 00:35:39;;;;;;;;;36.25;30.50;;;;;-144.96;100.00;116156.88;5070703;27;45284;-83
2022/09/11 00:38:07;;;;;;;;;45.25;34.75;;;;;-144.96;100.00;116156.88;5077832;27;45343;-81
2022/09/11 00:40:32;;;;;;;;;42.75;32.50;;;;;-144.96;100.00;116156.88;5077767;27;45537;-81
2022/09/11 00:42:59;;;;;;;;;37.50;32.50;;;;;-144.96;100.00;116156.88;5077210;27;45338;-80
2022/09/11 00:45:26;;;;;;;;;35.75;31.25;;;;;-144.96;100.00;116156.88;5075804;27;45366;-80
2022/09/11 00:47:57;;;;;;;;;32.00;27.25;;;;;-144.96;100.00;116156.88;5075967;27;45496;-81
2022/09/11 00:50:26;;;;;;;;;30.25;25.50;;;;;-144.96;100.00;116156.88;5076235;27;45435;-81
2022/09/11 00:53:03;;;;;;;;;27.50;24.00;;;;;-144.96;100.00;116156.88;5076246;27;45346;-80
2022/09/11 00:55:34;;;;;;;;;33.40;26.80;;;;;-144.96;100.00;116156.88;5076028;27;45304;-80
2022/09/11 00:58:22;;;;;;;;;31.75;23.25;;;;;-144.96;100.00;116156.88;5076131;27;45234;-80
2022/09/11 01:00:48;;;;;;;;;26.00;23.00;;;;;-144.96;100.00;116156.88;5075440;27;45562;-80
2022/09/11 01:03:13;;;;;;;;;26.75;23.00;;;;;-144.96;100.00;116156.88;5076293;27;45344;-82
2022/09/11 01:05:42;;;;;;;;;34.50;26.75;;;;;-144.96;100.00;116156.88;5074444;27;45285;-80
2022/09/11 01:08:07;;;;;;;;;25.50;24.25;;;;;-144.96;100.00;116156.88;5078231;27;45465;-80
2022/09/11 01:10:52;;;;;;;;;25.25;25.25;;;;;-144.96;100.00;116156.88;5079693;27;45425;-80
2022/09/11 01:13:42;;;;;;;;;24.25;19.50;;;;;-144.96;100.00;116156.88;5080122;27;45894;-80
2022/09/11 01:16:16;;;;;;;;;32.40;26.00;;;;;-144.96;100.00;116156.88;5079857;27;45639;-80
2022/09/11 01:19:00;;;;;;;;;27.50;25.25;;;;;-144.96;100.00;116156.88;5080208;27;45241;-80
2022/09/11 01:22:03;;;;;;;;;26.00;19.75;;;;;-144.96;100.00;116156.88;5081280;27;44943;-80
2022/09/11 01:25:01;;;;;;;;;26.00;23.50;;;;;-144.96;100.00;116156.88;5078881;27;45300;-81
2022/09/11 01:27:39;;;;;;;;;35.25;30.25;;;;;-144.96;100.00;116156.88;5079855;27;45260;-82
2022/09/11 01:30:07;;;;;;;;;29.00;27.00;;;;;-144.96;100.00;116156.88;5080286;27;45323;-81
2022/09/11 01:32:58;;;;;;;;;21.50;19.25;;;;;-144.96;100.00;116156.88;5080537;27;45402;-81
2022/09/11 01:35:42;;;;;;;;;20.20;18.60;;;;;-144.96;100.00;116156.88;5078684;27;46323;-80
2022/09/11 01:38:17;;;;;;;;;19.80;19.40;;;;;-144.96;100.00;116156.88;5079301;27;45292;-81
2022/09/11 01:40:47;;;;;;;;;24.60;21.40;;;;;-144.96;100.00;116156.88;5079467;27;45327;-82
2022/09/11 01:43:18;;;;;;;;;17.00;17.00;;;;;-144.96;100.00;116156.88;5079209;27;45616;-83
2022/09/11 01:45:47;;;;;;;;;18.75;17.75;;;;;-144.96;100.00;116156.88;5078064;27;47160;-82
2022/09/11 01:48:18;;;;;;;;;20.80;20.80;;;;;-144.96;100.00;116156.88;5079212;28;45544;-83
2022/09/11 01:50:46;;;;;;;;;23.00;18.80;;;;;-144.96;100.00;116156.88;5079077;27;45393;-82
2022/09/11 01:53:16;;;;;;;;;14.25;12.75;;;;;-144.96;100.00;116156.88;5078760;27;45378;-82
2022/09/11 01:56:01;;;;;;;;;20.25;16.75;;;;;-144.96;100.00;116156.88;5079032;27;45457;-82
2022/09/11 01:58:29;;;;;;;;;23.20;19.00;;;;;-144.96;100.00;116156.88;5079091;27;45324;-83
2022/09/11 02:01:10;;;;;;;;;20.40;16.80;;;;;-144.96;100.00;116156.88;5078301;27;45320;-82
2022/09/11 02:03:44;;;;;;;;;20.00;16.75;;;;;-144.96;100.00;116156.88;5077727;27;45327;-82
2022/09/11 02:06:23;;;;;;;;;21.00;18.60;;;;;-144.96;100.00;116156.88;5078412;27;45406;-82
2022/09/11 02:09:03;;;;;;;;;21.80;20.40;;;;;-144.96;100.00;116156.88;5078582;27;45446;-82
2022/09/11 02:11:33;;;;;;;;;22.40;16.00;;;;;-144.96;100.00;116156.88;5078749;27;45383;-83
2022/09/11 02:14:20;;;;;;;;;14.75;14.75;;;;;-144.96;100.00;116156.88;5077607;27;45330;-83
2022/09/11 02:16:55;;;;;;;;;21.60;20.40;;;;;-144.96;100.00;116156.88;5078352;27;46224;-82
2022/09/11 02:19:27;;;;;;;;;22.40;17.80;;;;;-144.96;100.00;116156.88;5077827;27;45382;-83
2022/09/11 02:21:53;;;;;;;;;23.80;20.00;;;;;-144.96;100.00;116156.88;5079040;27;45358;-82
2022/09/11 02:24:21;;;;;;;;;22.50;20.00;;;;;-144.96;100.00;116156.88;5078208;27;45355;-82
2022/09/11 02:26:51;;;;;;;;;17.60;16.40;;;;;-144.96;100.00;116156.88;5081041;28;46063;-82
2022/09/11 02:29:17;;;;;;;;;16.60;15.60;;;;;-144.96;100.00;116156.88;5084636;27;45205;-82
2022/09/11 02:31:44;;;;;;;;;22.80;19.20;;;;;-144.96;100.00;116156.88;5082001;27;45304;-83
2022/09/11 02:34:11;;;;;;;;;21.50;16.75;;;;;-144.96;100.00;116156.88;5077964;27;45509;-83
2022/09/11 02:36:47;;;;;;;;;14.40;14.40;;;;;-144.96;100.00;116156.88;5078548;27;46507;-82
2022/09/11 02:39:22;;;;;;;;;15.80;15.40;;;;;-144.96;100.00;116156.88;5078561;27;45401;-82
2022/09/11 02:42:14;;;;;;;;;17.40;15.20;;;;;-144.96;100.00;116156.88;5077930;27;45425;-82
2022/09/11 02:44:59;;;;;;;;;17.00;15.50;;;;;-144.96;100.00;116156.88;5077944;27;45263;-82
2022/09/11 02:47:51;;;;;;;;;22.25;20.00;;;;;-144.96;100.00;116156.88;5076857;27;45335;-82
2022/09/11 02:50:37;;;;;;;;;15.80;15.80;;;;;-144.96;100.00;116156.88;5078236;27;44842;-82
2022/09/11 02:53:13;;;;;;;;;18.80;14.80;;;;;-144.96;100.00;116156.88;5078638;27;45224;-82
2022/09/11 02:56:11;;;;;;;;;17.25;15.50;;;;;-144.96;100.00;116156.88;5078134;27;45451;-82
2022/09/11 02:58:49;;;;;;;;;20.25;16.00;;;;;-144.96;100.00;116156.88;5078101;27;45411;-82
2022/09/11 03:01:15;;;;;;;;;15.20;15.20;;;;;-144.96;100.00;116156.88;5078152;27;45458;-82
2022/09/11 03:03:45;;;;;;;;;17.60;16.20;;;;;-144.96;100.00;116156.88;5077739;27;45415;-81
2022/09/11 03:06:16;;;;;;;;;15.75;13.75;;;;;-144.96;100.00;116156.88;5077327;27;45480;-80
2022/09/11 03:08:41;;;;;;;;;20.20;16.20;;;;;-144.96;100.00;116156.88;5077318;27;45596;-81
2022/09/11 03:11:10;;;;;;;;;23.75;20.75;;;;;-144.96;100.00;116156.88;5077089;27;45319;-80
2022/09/11 03:13:36;;;;;;;;;24.80;21.20;;;;;-144.96;100.00;116156.88;5077564;27;45445;-81
2022/09/11 03:16:03;;;;;;;;;22.00;19.50;;;;;-144.96;100.00;116156.88;5077125;27;45401;-80
2022/09/11 03:18:29;;;;;;;;;24.00;21.00;;;;;-144.96;100.00;116156.88;5077111;27;46002;-80
2022/09/11 03:20:55;;;;;;;;;20.50;20.50;;;;;-144.96;100.00;116156.88;5076842;27;45481;-80
2022/09/11 03:23:21;;;;;;;;;25.60;21.00;;;;;-144.96;100.00;116156.88;5075582;27;45419;-80
2022/09/11 03:25:46;;;;;;;;;21.25;18.75;;;;;-144.96;100.00;116156.88;5076785;27;45522;-80
2022/09/11 03:28:12;;;;;;;;;25.75;22.50;;;;;-144.96;100.00;116156.88;5076817;27;46424;-81
2022/09/11 03:30:39;;;;;;;;;21.50;21.50;;;;;-144.96;100.00;116156.88;5078436;27;45228;-80
2022/09/11 03:33:04;;;;;;;;;17.75;16.50;;;;;-144.96;100.00;116156.88;5079863;27;45552;-81
2022/09/11 03:35:29;;;;;;;;;23.75;21.75;;;;;-144.96;100.00;116156.88;5076994;27;45729;-78
2022/09/11 03:37:56;;;;;;;;;21.25;19.75;;;;;-144.96;100.00;116156.88;5077772;27;45251;-81
2022/09/11 03:40:22;;;;;;;;;26.60;20.00;;;;;-144.96;100.00;116156.88;5076892;27;45411;-81
2022/09/11 03:42:47;;;;;;;;;28.25;19.50;;;;;-144.96;100.00;116156.88;5076663;27;45424;-80
2022/09/11 03:45:13;;;;;;;;;17.75;17.75;;;;;-144.96;100.00;116156.88;5076781;27;45473;-80
2022/09/11 03:47:39;;;;;;;;;25.25;21.75;;;;;-144.96;100.00;116156.88;5076667;27;46090;-80
2022/09/11 03:50:06;;;;;;;;;18.00;14.50;;;;;-144.96;100.00;116156.88;5076498;27;45455;-81
2022/09/11 03:52:32;;;;;;;;;23.50;20.00;;;;;-144.96;100.00;116156.88;5076837;27;45313;-80
2022/09/11 03:54:58;;;;;;;;;25.25;22.25;;;;;-144.96;100.00;116156.88;5076687;27;45347;-82
2022/09/11 03:57:23;;;;;;;;;18.75;17.25;;;;;-144.96;100.00;116156.88;5076812;27;45397;-81
2022/09/11 03:59:48;;;;;;;;;24.50;19.50;;;;;-144.96;100.00;116156.88;5077668;27;45478;-83
2022/09/11 04:02:14;;;;;;;;;24.50;23.25;;;;;-144.96;100.00;116156.88;5078208;27;45160;-82
2022/09/11 04:04:40;;;;;;;;;23.00;20.25;;;;;-144.96;100.00;116156.88;5077836;27;45557;-82
2022/09/11 04:07:06;;;;;;;;;26.00;22.50;;;;;-144.96;100.00;116156.88;5077000;27;46354;-83
2022/09/11 04:09:31;;;;;;;;;27.50;21.25;;;;;-144.96;100.00;116156.88;5077201;27;45745;-83
2022/09/11 04:11:56;;;;;;;;;24.00;21.50;;;;;-144.96;100.00;116156.88;5077815;27;45849;-81
2022/09/11 04:14:22;;;;;;;;;19.50;19.50;;;;;-144.96;100.00;116156.88;5076999;27;45603;-82
2022/09/11 04:16:48;;;;;;;;;23.50;21.75;;;;;-144.96;100.00;116156.88;5077133;27;47040;-83
2022/09/11 04:19:13;;;;;;;;;21.75;19.75;;;;;-144.96;100.00;116156.88;5076737;27;44839;-82
2022/09/11 04:21:39;;;;;;;;;19.50;19.50;;;;;-144.96;100.00;116156.88;5076938;27;45370;-82
2022/09/11 04:24:04;;;;;;;;;23.75;23.25;;;;;-144.96;100.00;116156.88;5076597;27;45443;-82
2022/09/11 04:26:31;;;;;;;;;22.00;21.25;;;;;-144.96;100.00;116156.88;5075583;28;45910;-82
2022/09/11 04:28:58;;;;;;;;;25.00;21.00;;;;;-144.96;100.00;116156.88;5076596;27;45302;-82
2022/09/11 04:31:25;;;;;;;;;21.80;20.20;;;;;-144.96;100.00;116156.88;5077106;27;45521;-82
2022/09/11 04:33:50;;;;;;;;;22.50;18.75;;;;;-144.96;100.00;116156.88;5078527;27;45469;-83
2022/09/11 04:36:18;;;;;;;;;17.50;13.00;;;;;-144.96;100.00;116156.88;5076740;28;46947;-83
2022/09/11 04:38:44;;;;;;;;;25.25;23.75;;;;;-144.96;100.00;116156.88;5077303;27;45508;-82
2022/09/11 04:41:10;;;;;;;;;21.25;20.00;;;;;-144.96;100.00;116156.88;5078937;27;45388;-82
2022/09/11 04:43:38;;;;;;;;;22.00;20.00;;;;;-144.96;100.00;116156.88;5082304;27;45536;-83
2022/09/11 04:46:06;;;;;;;;;20.50;20.50;;;;;-144.96;100.00;116156.88;5079183;27;47558;-80
2022/09/11 04:48:32;;;;;;;;;26.20;23.00;;;;;-144.96;100.00;116156.88;5077538;27;45343;-80
2022/09/11 04:51:05;;;;;;;;;22.75;20.25;;;;;-144.96;100.00;116156.88;5075722;27;45351;-80
2022/09/11 04:53:31;;;;;;;;;24.50;23.50;;;;;-144.96;100.00;116156.88;5075866;27;45388;-81
2022/09/11 04:56:02;;;;;;;;;22.40;22.00;;;;;-144.96;100.00;116156.88;5075545;28;45470;-81
2022/09/11 04:58:28;;;;;;;;;24.40;20.40;;;;;-144.96;100.00;116156.88;5075687;27;45505;-80
2022/09/11 05:00:53;;;;;;;;;26.50;26.00;;;;;-144.96;100.00;116156.88;5075960;27;45326;-82
2022/09/11 05:03:19;;;;;;;;;22.50;21.00;;;;;-144.96;100.00;116156.88;5075760;27;45168;-81
2022/09/11 05:05:45;;;;;;;;;23.25;22.00;;;;;-144.96;100.00;116156.88;5074223;27;46378;-81
2022/09/11 05:08:10;;;;;;;;;18.25;16.00;;;;;-144.96;100.00;116156.88;5075778;27;45435;-81
2022/09/11 05:10:38;;;;;;;;;20.50;20.00;;;;;-144.96;100.00;116156.88;5074920;27;45355;-80
2022/09/11 05:13:04;;;;;;;;;19.50;16.75;;;;;-144.96;100.00;116156.88;5075857;27;45602;-83
2022/09/11 05:15:30;;;;;;;;;24.25;19.75;;;;;-144.96;100.00;116156.88;5076160;27;46008;-83
2022/09/11 05:17:56;;;;;;;;;22.40;19.20;;;;;-144.96;100.00;116156.88;5074417;28;45504;-82
2022/09/11 05:20:22;;;;;;;;;32.40;19.40;;;;;-144.96;100.00;116156.88;5076549;27;45312;-82
2022/09/11 05:22:49;;;;;;;;;23.50;20.00;;;;;-144.96;100.00;116156.88;5075976;27;45343;-82
2022/09/11 05:25:15;;;;;;;;;21.25;20.50;;;;;-144.96;100.00;116156.88;5075578;27;45992;-82
2022/09/11 05:27:40;;;;;;;;;23.50;20.50;;;;;-144.96;100.00;116156.88;5076350;27;45240;-82
2022/09/11 05:30:06;;;;;;;;;24.75;21.25;;;;;-144.96;100.00;116156.88;5075670;27;45788;-82
2022/09/11 05:32:31;;;;;;;;;18.75;18.75;;;;;-144.96;100.00;116156.88;5076188;27;45427;-82
2022/09/11 05:34:57;;;;;;;;;22.25;17.25;;;;;-144.96;100.00;116156.88;5075378;27;45563;-83
2022/09/11 05:37:23;;;;;;;;;19.25;18.25;;;;;-144.96;100.00;116156.88;5076516;27;45460;-83
2022/09/11 05:39:48;;;;;;;;;19.00;17.50;;;;;-144.96;100.00;116156.88;5075968;28;45359;-83
2022/09/11 05:42:14;;;;;;;;;24.00;17.25;;;;;-144.96;100.00;116156.88;5076264;27;45510;-82
2022/09/11 05:44:39;;;;;;;;;20.75;19.25;;;;;-144.96;100.00;116156.88;5075893;27;45545;-83
2022/09/11 05:47:04;;;;;;;;;21.75;20.50;;;;;-144.96;100.00;116156.88;5074319;28;45685;-84
2022/09/11 05:49:30;;;;;;;;;21.75;18.00;;;;;-144.96;100.00;116156.88;5075313;27;45232;-81
2022/09/11 05:51:55;;;;;;;;;20.50;19.50;;;;;-144.96;100.00;116156.88;5075668;27;45483;-81
2022/09/11 05:54:21;;;;;;;;;21.50;17.00;;;;;-144.96;100.00;116156.88;5076069;27;45667;-82
2022/09/11 05:56:46;;;;;;;;;18.75;18.00;;;;;-144.96;100.00;116156.88;5079273;27;45391;-81
2022/09/11 05:59:13;;;;;;;;;23.50;17.00;;;;;-144.96;100.00;116156.88;5080493;27;45550;-82
2022/09/11 06:01:38;;;;;;;;;20.50;18.50;;;;;-144.96;100.00;116156.88;5079761;27;45389;-80
2022/09/11 06:04:08;;;;;;;;;20.00;17.75;;;;;-144.96;100.00;116156.88;5078036;27;45980;-81
2022/09/11 06:06:34;;;;;;;;;27.40;21.20;;;;;-144.96;100.00;116156.88;5078722;27;45485;-81
2022/09/11 06:08:59;;;;;;;;;22.00;21.50;;;;;-144.96;100.00;116156.88;5077787;27;45563;-81
2022/09/11 06:11:24;;;;;;;;;22.50;22.00;;;;;-144.96;100.00;116156.88;5079649;27;45394;-81
2022/09/11 06:13:50;;;;;;;;;27.50;22.00;;;;;-144.96;100.00;116156.88;5078910;27;45395;-81
2022/09/11 06:16:17;;;;;;;;;26.50;25.75;;;;;-144.96;100.00;116156.88;5078352;27;45407;-81
2022/09/11 06:18:44;;;;;;;;;27.80;20.40;;;;;-144.96;100.00;116156.88;5078059;27;45371;-81
2022/09/11 06:21:12;;;;;;;;;22.25;20.75;;;;;-144.96;100.00;116156.88;5078338;27;45319;-81
2022/09/11 06:23:40;;;;;;;;;24.50;21.00;;;;;-144.96;100.00;116156.88;5078500;27;45449;-80
2022/09/11 06:26:10;;;;;;;;;22.60;19.40;;;;;-144.96;100.00;116156.88;5078352;27;45306;-83
2022/09/11 06:28:37;;;;;;;;;28.40;21.00;;;;;-144.96;100.00;116156.88;5078853;27;45516;-83
2022/09/11 06:31:04;;;;;;;;;29.50;25.75;;;;;-144.96;100.00;116156.88;5078937;28;45373;-82
2022/09/11 06:33:34;;;;;;;;;18.80;17.80;;;;;-144.96;100.00;116156.88;5078304;27;45431;-82
2022/09/11 06:36:02;;;;;;;;;20.60;18.60;;;;;-144.96;100.00;116156.88;5077098;27;45457;-82
2022/09/11 06:38:30;;;;;;;;;21.80;18.20;;;;;-144.96;100.00;116156.88;5079271;27;45397;-81
2022/09/11 06:40:56;;;;;;;;;19.75;17.50;;;;;-144.96;100.00;116156.88;5078417;28;45393;-81
2022/09/11 06:43:21;;;;;;;;;21.75;17.75;;;;;-144.96;100.00;116156.88;5077853;27;46464;-82
2022/09/11 06:45:47;;;;;;;;;26.50;17.00;;;;;-144.96;100.00;116156.88;5078846;27;45402;-81
2022/09/11 06:48:14;;;;;;;;;16.75;16.00;;;;;-144.96;100.00;116156.88;5077515;27;45342;-83
2022/09/11 06:50:39;;;;;;;;;21.25;19.25;;;;;-144.96;100.00;116156.88;5080144;27;44729;-84
2022/09/11 06:53:06;;;;;;;;;18.50;18.50;;;;;-144.96;100.00;116156.88;5080258;27;45320;-83
2022/09/11 06:55:32;;;;;;;;;20.00;17.60;;;;;-144.96;100.00;116156.88;5080623;27;45563;-83
2022/09/11 06:57:57;;;;;;;;;22.00;19.00;;;;;-144.96;100.00;116156.88;5079629;27;45451;-83
2022/09/11 07:00:23;;;;;;;;;15.00;14.50;;;;;-144.96;100.00;116156.88;5080014;27;45379;-83
2022/09/11 07:02:51;;;;;;;;;21.00;17.80;;;;;-144.96;100.00;116156.88;5078699;27;45350;-84
2022/09/11 07:05:17;;;;;;;;;23.20;22.20;;;;;-144.96;100.00;116156.88;5079705;27;45423;-83
2022/09/11 07:07:42;;;;;;;;;19.25;17.75;;;;;-144.96;100.00;116156.88;5081077;27;45374;-83
2022/09/11 07:10:09;;;;;;;;;23.00;20.00;;;;;-144.96;100.00;116156.88;5081564;27;45303;-84
2022/09/11 07:12:37;;;;;;;;;25.80;20.00;;;;;-144.96;100.00;116156.88;5078548;27;45928;-83
2022/09/11 07:15:07;;;;;;;;;16.80;15.80;;;;;-144.96;100.00;116156.88;5078092;27;45462;-83
2022/09/11 07:17:32;;;;;;;;;21.40;16.20;;;;;-144.96;100.00;116156.88;5077785;27;45224;-81
2022/09/11 07:19:58;;;;;;;;;16.50;16.50;;;;;-144.96;100.00;116156.88;5076436;27;45501;-82
2022/09/11 07:22:23;;;;;;;;;26.75;17.00;;;;;-144.96;100.00;116156.88;5077701;27;46251;-81
2022/09/11 07:24:49;;;;;;;;;24.50;19.50;;;;;-144.96;100.00;116156.88;5078340;27;45372;-81
2022/09/11 07:27:15;;;;;;;;;21.40;19.60;;;;;-144.96;100.00;116156.88;5077943;27;45181;-81
2022/09/11 07:29:40;;;;;;;;;24.50;20.75;;;;;-144.96;100.00;116156.88;5078026;27;45619;-81
2022/09/11 07:32:06;;;;;;;;;23.75;22.25;;;;;-144.96;100.00;116156.88;5077037;27;45383;-82
2022/09/11 07:34:31;;;;;;;;;24.75;21.25;;;;;-144.96;100.00;116156.88;5081002;27;45477;-80
2022/09/11 07:36:56;;;;;;;;;26.00;21.50;;;;;-144.96;100.00;116156.88;5097874;27;45733;-81
2022/09/11 07:39:22;;;;;;;;;28.75;24.00;;;;;-144.96;100.00;116156.88;5096791;27;45488;-82
2022/09/11 07:41:48;;;;;;;;;19.75;19.00;;;;;-144.96;100.00;116156.88;5098054;27;45484;-82
2022/09/11 07:44:14;;;;;;;;;27.75;23.00;;;;;-144.96;100.00;116156.88;5097699;27;45520;-82
2022/09/11 07:46:40;;;;;;;;;36.20;27.00;;;;;-144.96;100.00;116156.88;5097708;27;45411;-81
2022/09/11 07:49:08;;;;;;;;;31.00;23.75;;;;;-144.96;100.00;116156.88;5097561;27;44911;-81
2022/09/11 07:51:35;;;;;;;;;32.25;24.25;;;;;-144.96;100.00;116156.88;5097319;27;46588;-82
2022/09/11 07:54:01;;;;;;;;;20.40;18.20;;;;;-144.96;100.00;116156.88;5097276;27;45420;-81
2022/09/11 07:56:27;;;;;;;;;37.00;27.00;;;;;-144.96;100.00;116156.88;5097491;27;45449;-81
2022/09/11 07:58:54;;;;;;;;;31.50;26.50;;;;;-144.96;100.00;116156.88;5097706;27;45610;-81
2022/09/11 08:01:22;;;;;;;;;38.50;29.25;;;;;-144.96;100.00;116156.88;5097026;27;45312;-81
2022/09/11 08:03:59;;;;;;;;;28.40;26.60;;;;;-144.96;100.00;116156.88;5097724;27;45287;-80
2022/09/11 08:06:27;;;;;;;;;27.80;24.80;;;;;-144.96;100.00;116156.88;5113451;27;45323;-81
2022/09/11 08:09:04;;;;;;;;;27.00;25.50;;;;;-144.96;100.00;116156.88;5097274;27;45521;-81
2022/09/11 08:11:33;;;;;;;;;29.40;27.20;;;;;-144.96;100.00;116156.88;5096958;27;45417;-81
2022/09/11 08:13:58;;;;;;;;;27.80;22.60;;;;;-144.96;100.00;116156.88;5100374;27;45325;-82
2022/09/11 08:16:25;;;;;;;;;29.00;25.25;;;;;-144.96;100.00;116156.88;5099976;27;45358;-81
2022/09/11 08:18:51;;;;;;;;;34.25;29.50;;;;;-144.96;100.00;116156.88;5098645;27;45461;-82
2022/09/11 08:21:17;;;;;;;;;31.50;29.00;;;;;-144.96;100.00;116156.88;5097332;27;46135;-82
2022/09/11 08:23:43;;;;;;;;;27.75;25.75;;;;;-144.96;100.00;116156.88;5097446;27;45433;-81
2022/09/11 08:26:09;;;;;;;;;34.50;28.00;;;;;-144.96;100.00;116156.88;5095995;27;45381;-81
2022/09/11 08:28:36;;;;;;;;;37.50;28.25;;;;;-144.96;100.00;116156.88;5096363;27;45469;-81
2022/09/11 08:31:03;;;;;;;;;35.25;30.25;;;;;-144.96;100.00;116156.88;5098059;27;45514;-81
2022/09/11 08:33:29;;;;;;;;;35.20;27.60;;;;;-144.96;100.00;116156.88;5096861;27;45426;-82
2022/09/11 08:35:56;;;;;;;;;37.75;33.00;;;;;-144.96;100.00;116156.88;5082356;27;45294;-81
2022/09/11 08:38:23;;;;;;;;;21.50;20.00;;;;;-144.96;100.00;116156.88;5076602;27;45283;-81
2022/09/11 08:40:50;;;;;;;;;33.50;27.00;;;;;-144.96;100.00;116156.88;5076296;27;46170;-81
2022/09/11 08:43:34;;;;;;;;;27.80;25.60;;;;;-144.96;100.00;116156.88;5076914;27;45373;-81
2022/09/11 08:46:04;;;;;;;;;27.40;26.80;;;;;-144.96;100.00;116156.88;5076087;27;45553;-80
2022/09/11 08:48:45;;;;;;;;;42.50;32.75;;;;;-144.96;100.00;116156.88;5076526;27;45521;-81
2022/09/11 08:51:15;;;;;;;;;30.50;26.00;;;;;-144.96;100.00;116156.88;5076476;27;45385;-80
2022/09/11 08:53:41;;;;;;;;;27.80;21.80;;;;;-144.96;100.00;116156.88;5076207;27;45389;-81
2022/09/11 08:56:14;;;;;;;;;36.50;33.25;;;;;-144.96;100.00;116156.88;5075698;27;45418;-81
2022/09/11 08:58:57;;;;;;;;;32.50;31.50;;;;;-144.96;100.00;116156.88;5075404;27;45311;-81
2022/09/11 09:01:44;;;;;;;;;38.50;30.75;;;;;-144.96;100.00;116156.88;5074680;27;46113;-80
2022/09/11 09:04:28;;;;;;;;;30.60;24.40;;;;;-144.96;100.00;116156.88;5076306;27;45310;-81
2022/09/11 09:07:07;;;;;;;;;36.50;31.50;;;;;-144.96;100.00;116156.88;5075793;27;45380;-81
2022/09/11 09:10:01;;;;;;;;;34.00;29.75;;;;;-144.96;100.00;116156.88;5076537;27;45404;-81
2022/09/11 09:12:32;;;;;;;;;39.75;31.50;;;;;-144.96;100.00;116156.88;5076607;27;46122;-80
2022/09/11 09:15:10;;;;;;;;;32.20;31.80;;;;;-144.96;100.00;116156.88;5074906;27;45413;-81
2022/09/11 09:17:58;;;;;;;;;36.20;30.40;;;;;-144.96;100.00;116156.88;5076456;27;45283;-83
2022/09/11 09:20:34;;;;;;;;;33.75;30.75;;;;;-144.96;100.00;116156.88;5078030;27;45490;-82
2022/09/11 09:23:14;;;;;;;;;36.25;29.50;;;;;-144.96;100.00;116156.88;5079881;27;45751;-83
2022/09/11 09:25:41;;;;;;;;;31.20;29.40;;;;;-144.96;100.00;116156.88;5081686;27;45445;-84
2022/09/11 09:28:23;;;;;;;;;33.60;30.80;;;;;-144.96;100.00;116156.88;5078792;27;45359;-84
2022/09/11 09:30:56;;;;;;;;;33.50;29.25;;;;;-144.96;100.00;116156.88;5080112;27;45513;-84
2022/09/11 09:33:30;;;;;;;;;36.75;31.75;;;;;-144.96;100.00;116156.88;5080307;27;46234;-83
2022/09/11 09:35:58;;;;;;;;;31.40;28.80;;;;;-144.96;100.00;116156.88;5081165;27;45303;-84
2022/09/11 09:38:28;;;;;;;;;34.40;27.20;;;;;-144.96;100.00;116156.88;5080647;27;45731;-83
2022/09/11 09:41:06;;;;;;;;;32.00;29.00;;;;;-144.96;100.00;116156.88;5080870;28;45511;-83
2022/09/11 09:43:31;;;;;;;;;28.60;26.80;;;;;-144.96;100.00;116156.88;5080784;27;46161;-83
2022/09/11 09:46:08;;;;;;;;;23.00;19.75;;;;;-144.96;100.00;116156.88;5081766;27;45334;-83
2022/09/11 09:48:38;;;;;;;;;25.00;23.20;;;;;-144.96;100.00;116156.88;5081987;28;45454;-82
2022/09/11 09:51:10;;;;;;;;;31.50;27.50;;;;;-144.96;100.00;116156.88;5082414;27;45505;-83
2022/09/11 09:53:57;;;;;;;;;27.20;25.60;;;;;-144.96;100.00;116156.88;5080519;27;45334;-84
2022/09/11 09:56:23;;;;;;;;;23.40;22.60;;;;;-144.96;100.00;116156.88;5079660;27;45512;-84
2022/09/11 09:59:14;;;;;;;;;24.80;23.60;;;;;-144.96;100.00;116156.88;5080098;28;45314;-82
2022/09/11 10:01:53;;;;;;;;;23.25;21.75;;;;;-144.96;100.00;116156.88;5077406;27;45565;-83
2022/09/11 10:04:22;;;;;;;;;31.80;22.60;;;;;-144.96;100.00;116156.88;5080326;27;45462;-82
2022/09/11 10:06:50;;;;;;;;;21.40;17.40;;;;;-144.96;100.00;116156.88;5079686;27;45484;-83
2022/09/11 10:09:25;;;;;;;;;20.20;20.20;;;;;-144.96;100.00;116156.88;5080232;27;45315;-83
2022/09/11 10:12:21;;;;;;;;;24.20;20.40;;;;;-144.96;100.00;116156.88;5080276;27;45347;-83
2022/09/11 10:14:54;;;;;;;;;25.80;20.40;;;;;-144.96;100.00;116156.88;5080342;27;45098;-84
2022/09/11 10:17:32;;;;;;;;;21.80;20.40;;;;;-144.96;100.00;116156.88;5081002;27;45431;-83
2022/09/11 10:20:36;;;;;;;;;19.40;17.20;;;;;-144.96;100.00;116156.88;5082593;27;44777;-84
2022/09/11 10:23:24;;;;;;;;;18.80;15.60;;;;;-144.96;100.00;116156.88;5077567;28;45683;-82
2022/09/11 10:25:51;;;;;;;;;16.40;16.00;;;;;-144.96;100.00;116156.88;5079999;28;46547;-83
2022/09/11 10:28:25;;;;;;;;;19.40;19.40;;;;;-144.96;100.00;116156.88;5080421;28;45417;-83
2022/09/11 10:30:52;;;;;;;;;16.20;15.00;;;;;-144.96;100.00;116156.88;5078512;28;44776;-83
2022/09/11 10:33:27;;;;;;;;;18.80;16.80;;;;;-144.96;100.00;116156.88;5076823;28;45459;-82
2022/09/11 10:35:54;;;;;;;;;18.60;16.00;;;;;-144.96;100.00;116156.88;5077236;27;45224;-83
2022/09/11 10:38:25;;;;;;;;;13.80;10.60;;;;;-144.96;100.00;116156.88;5077430;28;45420;-82
2022/09/11 10:41:20;;;;;;;;;19.80;17.40;;;;;-144.96;100.00;116156.88;5076280;28;45442;-86
2022/09/11 10:43:59;;;;;;;;;16.60;13.80;;;;;-144.96;100.00;116156.88;5072793;27;45398;-83
2022/09/11 10:46:35;;;;;;;;;19.00;16.80;;;;;-144.96;100.00;116156.88;5077292;28;46807;-84
2022/09/11 10:49:20;;;;;;;;;17.40;16.20;;;;;-144.96;100.00;116156.88;5076648;28;45552;-84
2022/09/11 10:52:05;;;;;;;;;16.80;15.80;;;;;-144.96;100.00;116156.88;5077400;28;44745;-84
2022/09/11 10:55:14;;;;;;;;;15.00;14.00;;;;;-144.96;100.00;116156.88;5076970;28;45386;-83
2022/09/11 10:57:52;;;;;;;;;13.20;13.20;;;;;-144.96;100.00;116156.88;5078800;28;45537;-83
2022/09/11 11:00:29;;;;;;;;;17.80;15.20;;;;;-144.96;100.00;116156.88;5070987;28;45318;-83
2022/09/11 11:03:00;;;;;;;;;12.20;12.20;;;;;-144.96;100.00;116156.88;5080354;27;45277;-83